sensor_id;sensor_type;location;lat;lon;timestamp;temperature;humidity
10276;DHT22;5183;51.190;6.820;2022-12-18T06:30:53;-5.30;99.90
10276;DHT22;5183;51.190;6.820;2022-12-18T06:33:20;-5.10;99.90
10276;DHT22;5183;51.190;6.820;2022-12-18T06:35:47;-5.10;99.90
10276;DHT22;5183;51.190;6.820;2022-12-18T06:38:14;-5.10;99.90
10276;DHT22;5183;51.190;6.820;2022-12-18T06:40:41;-5.00;99.90
10276;DHT22;5183;51.190;6.820;2022-12-18T06:43:08;-5.00;99.90
10276;DHT22;5183;51.190;6.820;2022-12-18T06:45:34;-5.00;99.90
10276;DHT22;5183;51.190;6.820;2022-12-18T06:48:04;-5.00;99.90
10276;DHT22;5183;51.190;6.820;2022-12-18T06:50:31;-5.00;99.90
10276;DHT22;5183;51.190;6.820;2022-12-18T06:52:58;-5.00;99.90
10276;DHT22;5183;51.190;6.820;2022-12-18T06:55:25;-4.90;99.90
10276;DHT22;5183;51.190;6.820;2022-12-18T06:57:51;-4.90;99.90
10276;DHT22;5183;51.190;6.820;2022-12-18T07:00:18;-4.80;99.90
10276;DHT22;5183;51.190;6.820;2022-12-18T07:02:45;-4.80;99.90
10276;DHT22;5183;51.190;6.820;2022-12-18T07:05:13;-4.70;99.90
10276;DHT22;5183;51.190;6.820;2022-12-18T07:07:40;-4.60;99.90
10276;DHT22;5183;51.190;6.820;2022-12-18T07:10:08;-4.60;99.90
10276;DHT22;5183;51.190;6.820;2022-12-18T07:12:35;-4.70;99.90
10276;DHT22;5183;51.190;6.820;2022-12-18T07:15:02;-4.60;99.90
10276;DHT22;5183;51.190;6.820;2022-12-18T07:17:29;-4.60;99.90
10276;DHT22;5183;51.190;6.820;2022-12-18T07:19:56;-4.50;99.90
10276;DHT22;5183;51.190;6.820;2022-12-18T07:22:25;-4.50;99.90
10276;DHT22;5183;51.190;6.820;2022-12-18T07:24:51;-4.50;99.90
10276;DHT22;5183;51.190;6.820;2022-12-18T07:27:18;-4.50;94.10
10276;DHT22;5183;51.190;6.820;2022-12-18T07:29:45;-4.40;95.40
10276;DHT22;5183;51.190;6.820;2022-12-18T07:32:12;-4.40;90.70
10276;DHT22;5183;51.190;6.820;2022-12-18T07:34:39;-4.40;86.90
10276;DHT22;5183;51.190;6.820;2022-12-18T07:37:06;-4.30;75.90
10276;DHT22;5183;51.190;6.820;2022-12-18T07:39:34;-4.40;63.50
10276;DHT22;5183;51.190;6.820;2022-12-18T07:42:00;-4.40;69.80
10276;DHT22;5183;51.190;6.820;2022-12-18T07:44:45;-4.30;64.00
10276;DHT22;5183;51.190;6.820;2022-12-18T07:47:12;-4.30;68.00
10276;DHT22;5183;51.190;6.820;2022-12-18T07:49:38;-4.20;43.00
10276;DHT22;5183;51.190;6.820;2022-12-18T07:52:05;-4.30;43.20
10276;DHT22;5183;51.190;6.820;2022-12-18T07:54:33;-4.30;43.50
10276;DHT22;5183;51.190;6.820;2022-12-18T07:57:00;-4.30;44.00
10276;DHT22;5183;51.190;6.820;2022-12-18T07:59:27;-4.30;56.10
10276;DHT22;5183;51.190;6.820;2022-12-18T08:01:54;-4.30;66.80
10276;DHT22;5183;51.190;6.820;2022-12-18T08:04:20;-4.30;68.20
10276;DHT22;5183;51.190;6.820;2022-12-18T08:06:47;-4.30;68.40
10276;DHT22;5183;51.190;6.820;2022-12-18T08:09:14;-4.30;55.30
10276;DHT22;5183;51.190;6.820;2022-12-18T08:11:42;-4.00;99.90
10276;DHT22;5183;51.190;6.820;2022-12-18T08:14:09;-3.90;62.40
10276;DHT22;5183;51.190;6.820;2022-12-18T08:16:36;-4.00;9.20
10276;DHT22;5183;51.190;6.820;2022-12-18T08:19:03;-4.00;6.90
10276;DHT22;5183;51.190;6.820;2022-12-18T08:21:31;-4.00;1.00
10276;DHT22;5183;51.190;6.820;2022-12-18T08:24:00;-4.00;1.00
10276;DHT22;5183;51.190;6.820;2022-12-18T08:26:28;-4.10;8.90
10276;DHT22;5183;51.190;6.820;2022-12-18T08:28:58;-4.00;19.00
10276;DHT22;5183;51.190;6.820;2022-12-18T08:31:27;-4.00;7.70
10276;DHT22;5183;51.190;6.820;2022-12-18T08:33:55;-4.00;10.20
10276;DHT22;5183;51.190;6.820;2022-12-18T08:36:22;-3.80;1.00
10276;DHT22;5183;51.190;6.820;2022-12-18T08:38:50;-3.70;1.00
10276;DHT22;5183;51.190;6.820;2022-12-18T08:41:17;-3.70;1.00
10276;DHT22;5183;51.190;6.820;2022-12-18T08:43:44;-3.70;1.00
10276;DHT22;5183;51.190;6.820;2022-12-18T08:46:34;-3.70;1.00
10276;DHT22;5183;51.190;6.820;2022-12-18T08:49:02;-3.60;1.00
10276;DHT22;5183;51.190;6.820;2022-12-18T08:51:29;-3.50;1.00
10276;DHT22;5183;51.190;6.820;2022-12-18T08:53:56;-3.50;1.00
10276;DHT22;5183;51.190;6.820;2022-12-18T08:56:23;-3.50;1.00
10276;DHT22;5183;51.190;6.820;2022-12-18T08:58:51;-3.40;1.00
10276;DHT22;5183;51.190;6.820;2022-12-18T09:01:18;-3.40;1.00
10276;DHT22;5183;51.190;6.820;2022-12-18T09:03:50;-3.40;1.00
10276;DHT22;5183;51.190;6.820;2022-12-18T09:06:19;-3.30;1.00
10276;DHT22;5183;51.190;6.820;2022-12-18T09:08:46;-3.20;1.00
10276;DHT22;5183;51.190;6.820;2022-12-18T09:11:20;-3.20;1.00
10276;DHT22;5183;51.190;6.820;2022-12-18T09:13:47;-3.20;1.00
10276;DHT22;5183;51.190;6.820;2022-12-18T09:16:14;-3.00;1.00
10276;DHT22;5183;51.190;6.820;2022-12-18T09:18:42;-3.00;1.00
10276;DHT22;5183;51.190;6.820;2022-12-18T09:21:11;-3.00;1.00
10276;DHT22;5183;51.190;6.820;2022-12-18T09:23:38;-3.00;1.00
10276;DHT22;5183;51.190;6.820;2022-12-18T09:26:05;-3.00;1.00
10276;DHT22;5183;51.190;6.820;2022-12-18T09:28:32;-2.90;1.00
10276;DHT22;5183;51.190;6.820;2022-12-18T09:31:02;-2.80;1.00
10276;DHT22;5183;51.190;6.820;2022-12-18T09:33:29;-2.80;1.00
10276;DHT22;5183;51.190;6.820;2022-12-18T09:35:56;-2.70;1.00
10276;DHT22;5183;51.190;6.820;2022-12-18T09:38:24;-2.60;1.00
10276;DHT22;5183;51.190;6.820;2022-12-18T09:40:53;-2.50;1.00
10276;DHT22;5183;51.190;6.820;2022-12-18T09:43:24;-2.40;1.00
10276;DHT22;5183;51.190;6.820;2022-12-18T09:45:56;-2.40;1.00
10276;DHT22;5183;51.190;6.820;2022-12-18T09:48:28;-2.30;1.00
10276;DHT22;5183;51.190;6.820;2022-12-18T09:50:59;-2.20;1.00
10276;DHT22;5183;51.190;6.820;2022-12-18T09:53:32;-2.10;1.00
10276;DHT22;5183;51.190;6.820;2022-12-18T09:56:04;-2.00;1.00
10276;DHT22;5183;51.190;6.820;2022-12-18T09:58:34;-2.00;1.00
10276;DHT22;5183;51.190;6.820;2022-12-18T10:01:06;-1.90;1.00
10276;DHT22;5183;51.190;6.820;2022-12-18T10:03:36;-1.80;1.00
10276;DHT22;5183;51.190;6.820;2022-12-18T10:06:06;-1.80;1.00
10276;DHT22;5183;51.190;6.820;2022-12-18T10:08:43;-1.80;1.00
10276;DHT22;5183;51.190;6.820;2022-12-18T10:11:32;-1.70;1.00
10276;DHT22;5183;51.190;6.820;2022-12-18T10:14:05;-1.60;1.00
10276;DHT22;5183;51.190;6.820;2022-12-18T10:16:42;-1.60;87.40
10276;DHT22;5183;51.190;6.820;2022-12-18T10:19:21;-1.60;99.90
10276;DHT22;5183;51.190;6.820;2022-12-18T10:21:54;-1.50;99.90
10276;DHT22;5183;51.190;6.820;2022-12-18T10:24:32;-1.50;23.50
10276;DHT22;5183;51.190;6.820;2022-12-18T10:27:11;-1.40;99.90
10276;DHT22;5183;51.190;6.820;2022-12-18T10:29:39;-1.30;1.00
10276;DHT22;5183;51.190;6.820;2022-12-18T10:32:07;-1.30;1.00
10276;DHT22;5183;51.190;6.820;2022-12-18T10:34:38;-1.20;1.00
10276;DHT22;5183;51.190;6.820;2022-12-18T10:37:09;-1.10;1.00
10276;DHT22;5183;51.190;6.820;2022-12-18T10:39:39;-1.00;1.00
10276;DHT22;5183;51.190;6.820;2022-12-18T10:42:10;-0.90;99.90
10276;DHT22;5183;51.190;6.820;2022-12-18T10:44:39;-0.90;1.00
10276;DHT22;5183;51.190;6.820;2022-12-18T10:47:12;-0.80;1.00
10276;DHT22;5183;51.190;6.820;2022-12-18T10:49:47;-0.80;99.90
10276;DHT22;5183;51.190;6.820;2022-12-18T10:52:18;-0.70;99.90
10276;DHT22;5183;51.190;6.820;2022-12-18T10:54:49;-0.60;76.10
10276;DHT22;5183;51.190;6.820;2022-12-18T10:57:29;-0.60;1.00
10276;DHT22;5183;51.190;6.820;2022-12-18T10:59:58;-0.50;1.00
10276;DHT22;5183;51.190;6.820;2022-12-18T11:02:27;-0.40;1.00
10276;DHT22;5183;51.190;6.820;2022-12-18T11:04:54;-0.40;1.00
10276;DHT22;5183;51.190;6.820;2022-12-18T11:07:21;-0.30;1.00
10276;DHT22;5183;51.190;6.820;2022-12-18T11:10:03;-0.20;1.00
10276;DHT22;5183;51.190;6.820;2022-12-18T11:12:29;-0.20;1.00
10276;DHT22;5183;51.190;6.820;2022-12-18T11:14:57;-0.10;1.00
10276;DHT22;5183;51.190;6.820;2022-12-18T11:17:28;0.00;1.00
10276;DHT22;5183;51.190;6.820;2022-12-18T11:19:56;0.00;1.00
10276;DHT22;5183;51.190;6.820;2022-12-18T11:22:25;0.00;1.00
10276;DHT22;5183;51.190;6.820;2022-12-18T11:24:57;0.10;1.00
10276;DHT22;5183;51.190;6.820;2022-12-18T11:27:25;0.20;1.00
10276;DHT22;5183;51.190;6.820;2022-12-18T11:29:53;0.20;1.00
10276;DHT22;5183;51.190;6.820;2022-12-18T11:32:35;0.30;1.00
10276;DHT22;5183;51.190;6.820;2022-12-18T11:35:10;0.30;1.00
10276;DHT22;5183;51.190;6.820;2022-12-18T11:37:40;0.30;1.00
10276;DHT22;5183;51.190;6.820;2022-12-18T11:40:14;0.30;1.00
10276;DHT22;5183;51.190;6.820;2022-12-18T11:42:47;0.30;1.00
10276;DHT22;5183;51.190;6.820;2022-12-18T11:45:24;0.40;1.00
10276;DHT22;5183;51.190;6.820;2022-12-18T11:47:57;0.30;1.00
10276;DHT22;5183;51.190;6.820;2022-12-18T11:50:28;0.30;1.00
10276;DHT22;5183;51.190;6.820;2022-12-18T11:52:56;0.30;1.00
10276;DHT22;5183;51.190;6.820;2022-12-18T11:55:30;0.30;1.00
10276;DHT22;5183;51.190;6.820;2022-12-18T11:58:05;0.30;1.00
10276;DHT22;5183;51.190;6.820;2022-12-18T12:00:38;0.30;1.00
10276;DHT22;5183;51.190;6.820;2022-12-18T12:03:58;0.40;1.00
10276;DHT22;5183;51.190;6.820;2022-12-18T12:06:33;0.40;1.00
10276;DHT22;5183;51.190;6.820;2022-12-18T12:09:10;0.40;1.00
10276;DHT22;5183;51.190;6.820;2022-12-18T12:11:50;0.40;1.00
10276;DHT22;5183;51.190;6.820;2022-12-18T12:14:28;0.40;1.00
10276;DHT22;5183;51.190;6.820;2022-12-18T12:17:07;0.40;1.00
10276;DHT22;5183;51.190;6.820;2022-12-18T12:19:45;0.40;1.00
10276;DHT22;5183;51.190;6.820;2022-12-18T12:22:19;0.40;1.00
10276;DHT22;5183;51.190;6.820;2022-12-18T12:24:56;0.40;1.00
10276;DHT22;5183;51.190;6.820;2022-12-18T12:27:33;0.50;1.00
10276;DHT22;5183;51.190;6.820;2022-12-18T12:30:06;0.50;1.00
10276;DHT22;5183;51.190;6.820;2022-12-18T12:32:45;0.40;1.00
10276;DHT22;5183;51.190;6.820;2022-12-18T12:35:25;0.40;1.00
10276;DHT22;5183;51.190;6.820;2022-12-18T12:38:04;0.40;1.00
10276;DHT22;5183;51.190;6.820;2022-12-18T12:40:34;0.30;1.00
10276;DHT22;5183;51.190;6.820;2022-12-18T12:43:10;0.30;1.00
10276;DHT22;5183;51.190;6.820;2022-12-18T12:45:45;0.30;1.00
10276;DHT22;5183;51.190;6.820;2022-12-18T12:48:18;0.30;1.00
10276;DHT22;5183;51.190;6.820;2022-12-18T12:50:47;0.20;1.00
10276;DHT22;5183;51.190;6.820;2022-12-18T12:53:23;0.30;1.00
10276;DHT22;5183;51.190;6.820;2022-12-18T12:55:52;0.30;1.00
10276;DHT22;5183;51.190;6.820;2022-12-18T12:58:27;0.20;1.00
10276;DHT22;5183;51.190;6.820;2022-12-18T13:01:05;0.20;1.00
10276;DHT22;5183;51.190;6.820;2022-12-18T13:03:43;0.30;1.00
10276;DHT22;5183;51.190;6.820;2022-12-18T13:06:16;0.30;1.00
10276;DHT22;5183;51.190;6.820;2022-12-18T13:08:55;0.30;1.00
10276;DHT22;5183;51.190;6.820;2022-12-18T13:11:31;0.20;1.00
10276;DHT22;5183;51.190;6.820;2022-12-18T13:14:30;0.30;1.00
10276;DHT22;5183;51.190;6.820;2022-12-18T13:17:23;0.20;1.00
10276;DHT22;5183;51.190;6.820;2022-12-18T13:20:05;0.20;1.00
10276;DHT22;5183;51.190;6.820;2022-12-18T13:22:35;0.20;1.00
10276;DHT22;5183;51.190;6.820;2022-12-18T13:25:04;0.20;1.00
10276;DHT22;5183;51.190;6.820;2022-12-18T13:28:05;0.20;1.00
10276;DHT22;5183;51.190;6.820;2022-12-18T13:30:50;0.20;1.00
10276;DHT22;5183;51.190;6.820;2022-12-18T13:33:44;0.20;1.00
10276;DHT22;5183;51.190;6.820;2022-12-18T13:36:23;0.10;1.00
10276;DHT22;5183;51.190;6.820;2022-12-18T13:42:39;0.10;1.00
10276;DHT22;5183;51.190;6.820;2022-12-18T13:45:39;0.10;1.00
10276;DHT22;5183;51.190;6.820;2022-12-18T13:48:18;0.10;1.00
10276;DHT22;5183;51.190;6.820;2022-12-18T13:50:53;0.10;1.00
10276;DHT22;5183;51.190;6.820;2022-12-18T13:53:24;0.00;1.00
10276;DHT22;5183;51.190;6.820;2022-12-18T13:55:52;0.10;1.00
10276;DHT22;5183;51.190;6.820;2022-12-18T13:58:19;0.10;1.00
10276;DHT22;5183;51.190;6.820;2022-12-18T14:00:45;0.00;1.00
10276;DHT22;5183;51.190;6.820;2022-12-18T14:03:19;0.00;1.00
10276;DHT22;5183;51.190;6.820;2022-12-18T14:05:56;0.10;1.00
10276;DHT22;5183;51.190;6.820;2022-12-18T14:08:29;0.10;1.00
10276;DHT22;5183;51.190;6.820;2022-12-18T14:10:58;0.00;1.00
10276;DHT22;5183;51.190;6.820;2022-12-18T14:13:29;0.00;1.00
10276;DHT22;5183;51.190;6.820;2022-12-18T14:15:56;0.00;1.00
10276;DHT22;5183;51.190;6.820;2022-12-18T14:18:31;0.00;1.00
10276;DHT22;5183;51.190;6.820;2022-12-18T14:21:02;-0.10;1.00
10276;DHT22;5183;51.190;6.820;2022-12-18T14:23:31;-0.10;1.00
10276;DHT22;5183;51.190;6.820;2022-12-18T14:25:59;-0.10;1.00
10276;DHT22;5183;51.190;6.820;2022-12-18T14:28:26;-0.10;1.00
10276;DHT22;5183;51.190;6.820;2022-12-18T14:30:53;-0.10;1.00
10276;DHT22;5183;51.190;6.820;2022-12-18T14:33:23;-0.10;1.00
10276;DHT22;5183;51.190;6.820;2022-12-18T14:35:57;-0.10;1.00
10276;DHT22;5183;51.190;6.820;2022-12-18T14:38:27;-0.10;1.00
10276;DHT22;5183;51.190;6.820;2022-12-18T14:40:56;-0.10;1.00
10276;DHT22;5183;51.190;6.820;2022-12-18T14:43:27;-0.10;1.00
10276;DHT22;5183;51.190;6.820;2022-12-18T14:45:54;-0.10;1.00
10276;DHT22;5183;51.190;6.820;2022-12-18T14:48:24;-0.10;1.00
10276;DHT22;5183;51.190;6.820;2022-12-18T14:51:00;-0.20;1.00
10276;DHT22;5183;51.190;6.820;2022-12-18T14:53:36;-0.20;1.00
10276;DHT22;5183;51.190;6.820;2022-12-18T14:56:16;-0.20;1.00
10276;DHT22;5183;51.190;6.820;2022-12-18T14:58:48;-0.20;1.00
10276;DHT22;5183;51.190;6.820;2022-12-18T15:01:29;-0.20;1.00
10276;DHT22;5183;51.190;6.820;2022-12-18T15:03:57;-0.20;1.00
10276;DHT22;5183;51.190;6.820;2022-12-18T15:06:29;-0.30;1.00
10276;DHT22;5183;51.190;6.820;2022-12-18T15:08:58;-0.30;1.00
10276;DHT22;5183;51.190;6.820;2022-12-18T15:11:33;-0.30;1.00
10276;DHT22;5183;51.190;6.820;2022-12-18T15:14:22;-0.30;1.00
10276;DHT22;5183;51.190;6.820;2022-12-18T15:16:51;-0.30;1.00
10276;DHT22;5183;51.190;6.820;2022-12-18T15:19:19;-0.30;1.00
10276;DHT22;5183;51.190;6.820;2022-12-18T15:21:48;-0.40;1.00
10276;DHT22;5183;51.190;6.820;2022-12-18T15:24:18;-0.30;1.00
10276;DHT22;5183;51.190;6.820;2022-12-18T15:26:46;-0.40;1.00
10276;DHT22;5183;51.190;6.820;2022-12-18T15:29:19;-0.40;1.00
10276;DHT22;5183;51.190;6.820;2022-12-18T15:32:04;-0.40;1.00
10276;DHT22;5183;51.190;6.820;2022-12-18T15:34:32;-0.40;1.00
10276;DHT22;5183;51.190;6.820;2022-12-18T15:37:01;-0.40;1.00
10276;DHT22;5183;51.190;6.820;2022-12-18T15:39:28;-0.40;1.00
10276;DHT22;5183;51.190;6.820;2022-12-18T15:41:55;-0.40;1.00
10276;DHT22;5183;51.190;6.820;2022-12-18T15:44:39;-0.50;1.00
10276;DHT22;5183;51.190;6.820;2022-12-18T15:47:10;-0.50;1.00
10276;DHT22;5183;51.190;6.820;2022-12-18T15:49:38;-0.50;1.00
10276;DHT22;5183;51.190;6.820;2022-12-18T15:52:08;-0.40;1.00
10276;DHT22;5183;51.190;6.820;2022-12-18T15:54:37;-0.50;1.00
10276;DHT22;5183;51.190;6.820;2022-12-18T15:57:21;-0.40;1.00
10276;DHT22;5183;51.190;6.820;2022-12-18T15:59:53;-0.50;1.00
10276;DHT22;5183;51.190;6.820;2022-12-18T16:02:22;-0.50;1.00
10276;DHT22;5183;51.190;6.820;2022-12-18T16:04:49;-0.50;1.00
10276;DHT22;5183;51.190;6.820;2022-12-18T16:07:17;-0.50;1.00
10276;DHT22;5183;51.190;6.820;2022-12-18T16:09:44;-0.50;1.00
10276;DHT22;5183;51.190;6.820;2022-12-18T16:12:16;-0.50;1.00
10276;DHT22;5183;51.190;6.820;2022-12-18T16:14:43;-0.60;1.00
10276;DHT22;5183;51.190;6.820;2022-12-18T16:17:11;-0.60;1.00
10276;DHT22;5183;51.190;6.820;2022-12-18T16:19:38;-0.60;1.00
10276;DHT22;5183;51.190;6.820;2022-12-18T16:22:20;-0.60;1.00
10276;DHT22;5183;51.190;6.820;2022-12-18T16:24:47;-0.60;1.00
10276;DHT22;5183;51.190;6.820;2022-12-18T16:27:14;-0.60;1.00
10276;DHT22;5183;51.190;6.820;2022-12-18T16:29:41;-0.60;1.00
10276;DHT22;5183;51.190;6.820;2022-12-18T16:32:12;-0.60;1.00
10276;DHT22;5183;51.190;6.820;2022-12-18T16:34:39;-0.70;1.00
10276;DHT22;5183;51.190;6.820;2022-12-18T16:37:08;-0.60;1.00
10276;DHT22;5183;51.190;6.820;2022-12-18T16:39:38;-0.70;1.00
10276;DHT22;5183;51.190;6.820;2022-12-18T16:42:08;-0.70;1.00
10276;DHT22;5183;51.190;6.820;2022-12-18T16:44:38;-0.70;1.00
10276;DHT22;5183;51.190;6.820;2022-12-18T16:47:05;-0.70;1.00
10276;DHT22;5183;51.190;6.820;2022-12-18T16:49:31;-0.70;1.00
10276;DHT22;5183;51.190;6.820;2022-12-18T16:51:58;-0.70;1.00
10276;DHT22;5183;51.190;6.820;2022-12-18T16:54:28;-0.70;1.00
10276;DHT22;5183;51.190;6.820;2022-12-18T16:56:57;-0.70;1.00
10276;DHT22;5183;51.190;6.820;2022-12-18T16:59:25;-0.70;1.00
10276;DHT22;5183;51.190;6.820;2022-12-18T17:01:52;-0.80;1.00
10276;DHT22;5183;51.190;6.820;2022-12-18T17:04:20;-0.80;1.00
10276;DHT22;5183;51.190;6.820;2022-12-18T17:06:47;-0.80;1.00
10276;DHT22;5183;51.190;6.820;2022-12-18T17:09:17;-0.80;1.00
10276;DHT22;5183;51.190;6.820;2022-12-18T17:11:44;-0.80;1.00
10276;DHT22;5183;51.190;6.820;2022-12-18T17:14:14;-0.80;1.00
10276;DHT22;5183;51.190;6.820;2022-12-18T17:16:41;-0.80;1.00
10276;DHT22;5183;51.190;6.820;2022-12-18T17:19:08;-0.80;1.00
10276;DHT22;5183;51.190;6.820;2022-12-18T17:21:35;-0.80;1.00
10276;DHT22;5183;51.190;6.820;2022-12-18T17:24:02;-0.80;1.00
10276;DHT22;5183;51.190;6.820;2022-12-18T17:26:29;-0.90;1.00
10276;DHT22;5183;51.190;6.820;2022-12-18T17:28:56;-0.90;1.00
10276;DHT22;5183;51.190;6.820;2022-12-18T17:31:26;-0.90;1.00
10276;DHT22;5183;51.190;6.820;2022-12-18T17:33:54;-0.90;1.00
10276;DHT22;5183;51.190;6.820;2022-12-18T17:36:21;-0.90;1.00
10276;DHT22;5183;51.190;6.820;2022-12-18T17:38:50;-0.90;1.00
10276;DHT22;5183;51.190;6.820;2022-12-18T17:41:18;-0.90;1.00
10276;DHT22;5183;51.190;6.820;2022-12-18T17:43:50;-0.90;1.00
10276;DHT22;5183;51.190;6.820;2022-12-18T17:46:17;-0.90;1.00
10276;DHT22;5183;51.190;6.820;2022-12-18T17:48:45;-1.00;1.00
10276;DHT22;5183;51.190;6.820;2022-12-18T17:51:12;-1.00;1.00
10276;DHT22;5183;51.190;6.820;2022-12-18T17:53:40;-1.00;1.00
10276;DHT22;5183;51.190;6.820;2022-12-18T17:56:08;-1.00;1.00
10276;DHT22;5183;51.190;6.820;2022-12-18T17:58:37;-1.00;1.00
10276;DHT22;5183;51.190;6.820;2022-12-18T18:01:04;-1.00;1.00
10276;DHT22;5183;51.190;6.820;2022-12-18T18:03:33;-1.00;1.00
10276;DHT22;5183;51.190;6.820;2022-12-18T18:06:04;-1.00;1.00
10276;DHT22;5183;51.190;6.820;2022-12-18T18:08:32;-1.10;1.00
10276;DHT22;5183;51.190;6.820;2022-12-18T18:11:03;-1.10;1.00
10276;DHT22;5183;51.190;6.820;2022-12-18T18:13:43;-1.10;1.00
10276;DHT22;5183;51.190;6.820;2022-12-18T18:16:32;-1.20;1.00
10276;DHT22;5183;51.190;6.820;2022-12-18T18:18:59;-1.10;1.00
10276;DHT22;5183;51.190;6.820;2022-12-18T18:21:28;-1.20;1.00
10276;DHT22;5183;51.190;6.820;2022-12-18T18:23:59;-1.20;1.00
10276;DHT22;5183;51.190;6.820;2022-12-18T18:26:26;-1.20;1.00
10276;DHT22;5183;51.190;6.820;2022-12-18T18:28:56;-1.20;1.00
10276;DHT22;5183;51.190;6.820;2022-12-18T18:31:24;-1.20;1.00
10276;DHT22;5183;51.190;6.820;2022-12-18T18:33:51;-1.20;1.00
10276;DHT22;5183;51.190;6.820;2022-12-18T18:36:19;-1.10;1.00
10276;DHT22;5183;51.190;6.820;2022-12-18T18:38:47;-1.20;1.00
10276;DHT22;5183;51.190;6.820;2022-12-18T18:41:15;-1.20;1.00
10276;DHT22;5183;51.190;6.820;2022-12-18T18:43:42;-1.20;1.00
10276;DHT22;5183;51.190;6.820;2022-12-18T18:46:11;-1.20;1.00
10276;DHT22;5183;51.190;6.820;2022-12-18T18:48:38;-1.20;1.00
10276;DHT22;5183;51.190;6.820;2022-12-18T18:51:07;-1.20;1.00
10276;DHT22;5183;51.190;6.820;2022-12-18T18:53:35;-1.20;1.00
10276;DHT22;5183;51.190;6.820;2022-12-18T18:56:05;-1.20;1.00
10276;DHT22;5183;51.190;6.820;2022-12-18T18:58:32;-1.10;1.00
10276;DHT22;5183;51.190;6.820;2022-12-18T19:01:01;-1.20;1.00
10276;DHT22;5183;51.190;6.820;2022-12-18T19:03:29;-1.20;1.00
10276;DHT22;5183;51.190;6.820;2022-12-18T19:05:58;-1.20;1.00
10276;DHT22;5183;51.190;6.820;2022-12-18T19:08:26;-1.20;1.00
10276;DHT22;5183;51.190;6.820;2022-12-18T19:10:54;-1.20;1.00
10276;DHT22;5183;51.190;6.820;2022-12-18T19:13:24;-1.20;1.00
10276;DHT22;5183;51.190;6.820;2022-12-18T19:15:52;-1.20;1.00
10276;DHT22;5183;51.190;6.820;2022-12-18T19:18:19;-1.20;1.00
10276;DHT22;5183;51.190;6.820;2022-12-18T19:20:57;-1.10;1.00
10276;DHT22;5183;51.190;6.820;2022-12-18T19:23:24;-1.10;1.00
10276;DHT22;5183;51.190;6.820;2022-12-18T19:25:51;-1.10;1.00
10276;DHT22;5183;51.190;6.820;2022-12-18T19:28:22;-1.10;1.00
10276;DHT22;5183;51.190;6.820;2022-12-18T19:30:53;-1.10;1.00
10276;DHT22;5183;51.190;6.820;2022-12-18T19:33:20;-1.10;1.00
10276;DHT22;5183;51.190;6.820;2022-12-18T19:35:49;-1.00;1.00
10276;DHT22;5183;51.190;6.820;2022-12-18T19:38:16;-1.00;1.00
10276;DHT22;5183;51.190;6.820;2022-12-18T19:40:44;-1.10;1.00
10276;DHT22;5183;51.190;6.820;2022-12-18T19:43:11;-1.00;1.00
10276;DHT22;5183;51.190;6.820;2022-12-18T19:45:40;-1.00;1.00
10276;DHT22;5183;51.190;6.820;2022-12-18T19:48:08;-1.00;1.00
10276;DHT22;5183;51.190;6.820;2022-12-18T19:50:40;-0.90;1.00
10276;DHT22;5183;51.190;6.820;2022-12-18T19:53:07;-0.90;1.00
10276;DHT22;5183;51.190;6.820;2022-12-18T19:55:39;-0.80;1.00
10276;DHT22;5183;51.190;6.820;2022-12-18T19:58:06;-0.80;1.00
10276;DHT22;5183;51.190;6.820;2022-12-18T20:00:33;-0.80;1.00
10276;DHT22;5183;51.190;6.820;2022-12-18T20:03:01;-0.90;1.00
10276;DHT22;5183;51.190;6.820;2022-12-18T20:05:28;-0.80;1.00
10276;DHT22;5183;51.190;6.820;2022-12-18T20:07:55;-0.80;1.00
10276;DHT22;5183;51.190;6.820;2022-12-18T20:10:22;-0.80;1.00
10276;DHT22;5183;51.190;6.820;2022-12-18T20:12:49;-0.70;1.00
10276;DHT22;5183;51.190;6.820;2022-12-18T20:15:17;-0.70;1.00
10276;DHT22;5183;51.190;6.820;2022-12-18T20:17:43;-0.70;1.00
10276;DHT22;5183;51.190;6.820;2022-12-18T20:20:12;-0.70;1.00
10276;DHT22;5183;51.190;6.820;2022-12-18T20:22:38;-0.70;1.00
10276;DHT22;5183;51.190;6.820;2022-12-18T20:25:06;-0.70;1.00
10276;DHT22;5183;51.190;6.820;2022-12-18T20:27:33;-0.70;1.00
10276;DHT22;5183;51.190;6.820;2022-12-18T20:30:00;-0.70;1.00
10276;DHT22;5183;51.190;6.820;2022-12-18T20:32:27;-0.60;1.00
10276;DHT22;5183;51.190;6.820;2022-12-18T20:34:53;-0.70;1.00
10276;DHT22;5183;51.190;6.820;2022-12-18T20:37:21;-0.70;1.00
10276;DHT22;5183;51.190;6.820;2022-12-18T20:39:48;-0.70;1.00
10276;DHT22;5183;51.190;6.820;2022-12-18T20:42:16;-0.60;1.00
10276;DHT22;5183;51.190;6.820;2022-12-18T20:44:43;-0.60;1.00
10276;DHT22;5183;51.190;6.820;2022-12-18T20:47:10;-0.60;1.00
10276;DHT22;5183;51.190;6.820;2022-12-18T20:49:37;-0.50;1.00
10276;DHT22;5183;51.190;6.820;2022-12-18T20:52:04;-0.50;1.00
10276;DHT22;5183;51.190;6.820;2022-12-18T20:54:32;-0.50;1.00
10276;DHT22;5183;51.190;6.820;2022-12-18T20:56:59;-0.50;1.00
10276;DHT22;5183;51.190;6.820;2022-12-18T20:59:26;-0.50;1.00
10276;DHT22;5183;51.190;6.820;2022-12-18T21:01:53;-0.50;1.00
10276;DHT22;5183;51.190;6.820;2022-12-18T21:04:20;-0.50;1.00
10276;DHT22;5183;51.190;6.820;2022-12-18T21:06:48;-0.40;1.00
10276;DHT22;5183;51.190;6.820;2022-12-18T21:09:15;-0.40;1.00
10276;DHT22;5183;51.190;6.820;2022-12-18T21:11:43;-0.40;1.00
10276;DHT22;5183;51.190;6.820;2022-12-18T21:14:28;-0.40;1.00
10276;DHT22;5183;51.190;6.820;2022-12-18T21:16:56;-0.40;1.00
10276;DHT22;5183;51.190;6.820;2022-12-18T21:19:25;-0.30;1.00
10276;DHT22;5183;51.190;6.820;2022-12-18T21:21:53;-0.30;1.00
10276;DHT22;5183;51.190;6.820;2022-12-18T21:24:20;-0.30;1.00
10276;DHT22;5183;51.190;6.820;2022-12-18T21:26:49;-0.20;1.00
10276;DHT22;5183;51.190;6.820;2022-12-18T21:29:18;-0.30;1.00
10276;DHT22;5183;51.190;6.820;2022-12-18T21:31:46;-0.30;1.00
10276;DHT22;5183;51.190;6.820;2022-12-18T21:34:15;-0.40;1.00
10276;DHT22;5183;51.190;6.820;2022-12-18T21:36:42;-0.40;1.00
10276;DHT22;5183;51.190;6.820;2022-12-18T21:39:09;-0.40;1.00
10276;DHT22;5183;51.190;6.820;2022-12-18T21:41:36;-0.40;1.00
10276;DHT22;5183;51.190;6.820;2022-12-18T21:44:22;-0.30;1.00
10276;DHT22;5183;51.190;6.820;2022-12-18T21:46:49;-0.40;1.00
10276;DHT22;5183;51.190;6.820;2022-12-18T21:49:17;-0.40;1.00
10276;DHT22;5183;51.190;6.820;2022-12-18T21:51:46;-0.40;1.00
10276;DHT22;5183;51.190;6.820;2022-12-18T21:54:13;-0.40;1.00
10276;DHT22;5183;51.190;6.820;2022-12-18T21:56:44;-0.40;1.00
10276;DHT22;5183;51.190;6.820;2022-12-18T21:59:12;-0.40;1.00
10276;DHT22;5183;51.190;6.820;2022-12-18T22:01:41;-0.40;1.00
10276;DHT22;5183;51.190;6.820;2022-12-18T22:04:08;-0.40;1.00
10276;DHT22;5183;51.190;6.820;2022-12-18T22:06:35;-0.40;1.00
10276;DHT22;5183;51.190;6.820;2022-12-18T22:09:02;-0.40;1.00
10276;DHT22;5183;51.190;6.820;2022-12-18T22:11:29;-0.40;1.00
10276;DHT22;5183;51.190;6.820;2022-12-18T22:13:56;-0.40;9.50
